createdAt,value
2022-08-09T00:01:23.286Z,60.66
2022-08-09T00:04:03.586Z,60.74
2022-08-09T00:06:39.527Z,60.87
2022-08-09T00:09:13.396Z,60.96
2022-08-09T00:12:03.075Z,61.01
2022-08-09T00:14:38.182Z,61.02
2022-08-09T00:17:07.384Z,61.10
2022-08-09T00:19:36.364Z,61.18
2022-08-09T00:22:04.664Z,61.30
2022-08-09T00:24:33.131Z,61.53
2022-08-09T00:27:02.484Z,61.76
2022-08-09T00:30:09.902Z,61.62
2022-08-09T00:32:25.216Z,61.89
2022-08-09T00:34:56.577Z,62.20
2022-08-09T00:37:27.078Z,62.25
2022-08-09T00:40:13.128Z,62.47
2022-08-09T00:44:14.815Z,62.47
2022-08-09T00:45:35.210Z,62.62
2022-08-09T00:48:05.570Z,62.62
2022-08-09T00:50:34.241Z,62.63
2022-08-09T00:53:08.814Z,62.74
2022-08-09T00:56:05.098Z,62.94
2022-08-09T00:58:31.537Z,63.48
2022-08-09T01:00:59.895Z,63.63
2022-08-09T01:03:30.811Z,63.89
2022-08-09T01:06:22.171Z,64.14
2022-08-09T01:09:35.796Z,64.39
2022-08-09T01:12:26.579Z,64.56
2022-08-09T01:15:16.719Z,64.50
2022-08-09T01:18:03.957Z,64.76
2022-08-09T01:20:49.825Z,64.99
2022-08-09T01:24:03.677Z,65.12
2022-08-09T01:26:55.924Z,65.30
2022-08-09T01:29:41.283Z,65.21
2022-08-09T01:32:29.899Z,65.27
2022-08-09T01:35:29.052Z,65.31
2022-08-09T01:38:15.016Z,65.48
2022-08-09T01:41:04.835Z,65.32
2022-08-09T01:43:41.935Z,65.48
2022-08-09T01:46:26.889Z,65.15
2022-08-09T01:49:09.506Z,65.18
2022-08-09T01:51:54.411Z,65.43
2022-08-09T01:54:28.069Z,65.60
2022-08-09T01:57:08.226Z,65.65
2022-08-09T01:59:40.973Z,65.63
2022-08-09T02:02:31.013Z,65.91
2022-08-09T02:05:15.409Z,65.67
2022-08-09T02:08:40.276Z,65.63
2022-08-09T02:10:51.138Z,65.70
2022-08-09T02:13:22.218Z,65.77
2022-08-09T02:15:56.342Z,65.86
2022-08-09T02:18:31.099Z,66.03
2022-08-09T02:21:06.011Z,66.20
2022-08-09T02:23:43.184Z,66.42
2022-08-09T02:26:27.250Z,66.52
2022-08-09T02:29:02.304Z,66.62
2022-08-09T02:31:36.778Z,66.81
2022-08-09T02:34:13.714Z,66.76
2022-08-09T02:36:57.228Z,66.90
2022-08-09T02:39:33.700Z,67.08
2022-08-09T02:42:17.325Z,67.19
2022-08-09T02:44:53.112Z,67.59
2022-08-09T02:47:23.668Z,67.58
2022-08-09T02:49:55.408Z,67.51
2022-08-09T02:52:45.076Z,67.82
2022-08-09T02:55:20.562Z,67.84
2022-08-09T02:58:00.287Z,67.69
2022-08-09T03:00:47.858Z,67.62
2022-08-09T03:04:12.413Z,67.75
2022-08-09T03:06:18.679Z,68.04
2022-08-09T03:08:52.408Z,68.01
2022-08-09T03:11:29.787Z,68.15
2022-08-09T03:14:13.024Z,68.09
2022-08-09T03:16:47.739Z,68.23
2022-08-09T03:19:58.370Z,68.46
2022-08-09T03:22:12.362Z,68.47
2022-08-09T03:25:06.402Z,68.49
2022-08-09T03:27:50.677Z,68.67
2022-08-09T03:30:29.946Z,68.63
2022-08-09T03:33:17.877Z,68.47
2022-08-09T03:36:13.347Z,68.92
2022-08-09T03:38:41.898Z,69.27
2022-08-09T03:41:16.397Z,68.99
2022-08-09T03:43:51.863Z,68.95
2022-08-09T03:46:36.228Z,69.06
2022-08-09T03:49:07.901Z,69.17
2022-08-09T03:51:58.143Z,69.14
2022-08-09T03:54:49.222Z,69.34
2022-08-09T03:57:21.100Z,69.63
2022-08-09T03:59:55.074Z,69.78
2022-08-09T04:02:27.908Z,69.73
2022-08-09T04:05:00.781Z,69.71
2022-08-09T04:07:33.851Z,69.87
2022-08-09T04:10:20.791Z,70.01
2022-08-09T04:12:57.942Z,70.19
2022-08-09T04:15:52.487Z,69.86
2022-08-09T04:18:19.500Z,69.70
2022-08-09T04:20:51.370Z,69.89
2022-08-09T04:23:23.294Z,69.66
2022-08-09T04:25:55.011Z,69.63
2022-08-09T04:28:33.140Z,69.39
2022-08-09T04:31:05.916Z,69.15
2022-08-09T04:33:52.952Z,69.20
2022-08-09T04:36:28.767Z,68.90
2022-08-09T04:38:59.876Z,68.93
2022-08-09T04:41:32.158Z,68.84
2022-08-09T04:44:06.536Z,68.72
2022-08-09T04:46:58.604Z,68.91
2022-08-09T04:49:52.978Z,69.22
2022-08-09T04:52:26.869Z,69.12
2022-08-09T04:54:57.439Z,69.43
2022-08-09T04:57:26.980Z,69.38
2022-08-09T05:00:16.630Z,69.00
2022-08-09T05:02:48.517Z,68.83
2022-08-09T05:05:32.319Z,68.57
2022-08-09T05:08:13.976Z,68.75
2022-08-09T05:10:44.627Z,68.84
2022-08-09T05:13:14.430Z,69.03
2022-08-09T05:15:48.228Z,68.95
2022-08-09T05:18:37.772Z,68.59
2022-08-09T05:21:22.718Z,68.65
2022-08-09T05:23:59.621Z,68.59
2022-08-09T05:26:36.524Z,68.30
2022-08-09T05:29:05.411Z,67.82
2022-08-09T05:31:44.125Z,67.50
2022-08-09T05:34:16.455Z,66.93
2022-08-09T05:36:47.076Z,66.73
2022-08-09T05:39:29.410Z,66.67
2022-08-09T05:42:01.429Z,66.08
2022-08-09T05:44:32.803Z,65.91
2022-08-09T05:47:04.846Z,65.62
2022-08-09T05:50:24.349Z,65.27
2022-08-09T05:52:24.827Z,64.85
2022-08-09T05:54:53.053Z,64.45
2022-08-09T05:57:25.045Z,64.23
2022-08-09T06:00:13.523Z,64.30
2022-08-09T06:02:41.908Z,64.47
2022-08-09T06:05:14.673Z,64.46
2022-08-09T06:07:44.408Z,64.42
2022-08-09T06:10:38.432Z,64.52
2022-08-09T06:13:18.608Z,64.39
2022-08-09T06:15:51.403Z,64.18
2022-08-09T06:18:24.859Z,64.39
2022-08-09T06:20:56.972Z,64.34
2022-08-09T06:23:58.597Z,64.25
2022-08-09T06:26:20.838Z,64.04
2022-08-09T06:29:00.053Z,63.95
2022-08-09T06:31:39.975Z,64.21
2022-08-09T06:34:31.306Z,64.37
2022-08-09T06:37:10.076Z,64.40
2022-08-09T06:39:57.801Z,64.52
2022-08-09T06:42:28.487Z,64.73
2022-08-09T06:45:00.108Z,64.71
2022-08-09T06:47:30.148Z,64.67
2022-08-09T06:50:13.977Z,64.70
2022-08-09T06:52:48.518Z,64.73
2022-08-09T06:55:22.950Z,64.45
2022-08-09T06:58:02.993Z,64.23
2022-08-09T07:00:52.251Z,64.02
2022-08-09T07:03:27.979Z,63.84
2022-08-09T07:06:03.756Z,63.79
2022-08-09T07:08:37.135Z,63.82
2022-08-09T07:11:08.535Z,63.62
2022-08-09T07:13:45.534Z,63.37
2022-08-09T07:16:41.909Z,63.45
2022-08-09T07:19:22.847Z,63.16
2022-08-09T07:21:57.913Z,62.91
2022-08-09T07:24:31.876Z,63.26
2022-08-09T07:27:01.755Z,63.14
2022-08-09T07:29:30.748Z,62.83
2022-08-09T07:32:07.444Z,62.42
2022-08-09T07:34:38.488Z,62.65
2022-08-09T07:37:10.949Z,62.89
2022-08-09T07:39:44.303Z,63.04
2022-08-09T07:42:15.225Z,62.54
2022-08-09T07:44:51.750Z,61.90
2022-08-09T07:47:23.104Z,61.40
2022-08-09T07:50:05.208Z,61.00
2022-08-09T07:52:38.093Z,60.68
2022-08-09T07:55:08.934Z,60.79
2022-08-09T07:57:46.498Z,60.85
2022-08-09T08:00:20.840Z,60.53
2022-08-09T08:03:04.892Z,60.08
2022-08-09T08:05:54.051Z,59.83
2022-08-09T08:09:02.747Z,59.70
2022-08-09T08:12:10.852Z,59.69
2022-08-09T08:13:57.668Z,59.26
2022-08-09T08:16:29.983Z,59.03
2022-08-09T08:19:03.284Z,59.00
2022-08-09T08:21:32.947Z,58.88
2022-08-09T08:24:12.072Z,58.38
2022-08-09T08:26:55.711Z,57.93
2022-08-09T08:29:27.690Z,57.26
2022-08-09T08:32:04.478Z,57.20
2022-08-09T08:34:36.294Z,57.00
2022-08-09T08:37:05.467Z,56.89
2022-08-09T08:39:43.643Z,56.45
2022-08-09T08:42:13.359Z,56.18
2022-08-09T08:44:43.459Z,56.32
2022-08-09T08:47:15.200Z,56.00
2022-08-09T08:49:47.855Z,55.93
2022-08-09T08:52:52.634Z,55.51
2022-08-09T08:55:08.816Z,55.68
2022-08-09T08:57:37.498Z,55.75
2022-08-09T09:00:21.011Z,55.13
2022-08-09T09:03:08.744Z,54.69
2022-08-09T09:05:58.305Z,54.13
2022-08-09T09:08:40.700Z,53.51
2022-08-09T09:11:17.474Z,52.91
2022-08-09T09:13:57.528Z,52.91
2022-08-09T09:16:34.775Z,52.33
2022-08-09T09:21:58.083Z,51.79
2022-08-09T09:24:31.262Z,51.32
2022-08-09T09:27:02.416Z,51.12
2022-08-09T09:30:08.486Z,50.90
2022-08-09T09:32:34.271Z,50.63
2022-08-09T09:35:09.297Z,50.32
2022-08-09T09:37:40.560Z,50.33
2022-08-09T09:40:11.834Z,50.21
2022-08-09T09:42:46.032Z,49.98
2022-08-09T09:45:26.466Z,50.16
2022-08-09T09:47:58.687Z,49.54
2022-08-09T09:50:50.620Z,49.85
2022-08-09T09:53:34.349Z,49.43
2022-08-09T09:56:30.817Z,49.14
2022-08-09T09:59:00.924Z,49.31
2022-08-09T10:01:36.897Z,49.26
2022-08-09T10:04:15.386Z,48.57
2022-08-09T10:06:52.159Z,48.24
2022-08-09T10:09:24.130Z,48.39
2022-08-09T10:12:14.747Z,48.41
2022-08-09T10:14:51.937Z,47.82
2022-08-09T10:17:55.150Z,48.11
2022-08-09T10:20:27.152Z,47.96
2022-08-09T10:23:20.308Z,47.66
2022-08-09T10:26:07.754Z,47.63
2022-08-09T10:28:41.688Z,47.22
2022-08-09T10:34:08.796Z,47.73
2022-08-09T10:36:54.337Z,47.63
2022-08-09T10:39:28.313Z,47.49
2022-08-09T10:41:57.130Z,47.39
2022-08-09T10:44:30.495Z,47.52
2022-08-09T10:48:13.307Z,47.57
2022-08-09T10:50:17.531Z,47.19
2022-08-09T10:53:12.434Z,46.94
2022-08-09T10:55:58.636Z,46.97
2022-08-09T10:58:34.649Z,46.63
2022-08-09T11:03:06.372Z,46.95
2022-08-09T11:04:27.797Z,46.89
2022-08-09T11:07:00.326Z,46.92
2022-08-09T11:09:38.097Z,46.79
2022-08-09T11:12:29.676Z,46.94
2022-08-09T11:15:02.887Z,46.91
2022-08-09T11:17:31.130Z,46.88
2022-08-09T11:20:20.393Z,46.65
2022-08-09T11:22:56.885Z,46.69
2022-08-09T11:25:36.211Z,46.21
2022-08-09T11:28:30.607Z,45.62
2022-08-09T11:31:36.622Z,45.09
2022-08-09T11:34:10.858Z,45.10
2022-08-09T11:36:44.319Z,44.84
2022-08-09T11:39:12.536Z,44.59
2022-08-09T11:41:45.281Z,44.95
2022-08-09T11:44:14.172Z,44.92
2022-08-09T11:46:57.407Z,44.80
2022-08-09T11:50:56.168Z,44.89
2022-08-09T11:53:21.455Z,45.03
2022-08-09T11:56:02.868Z,44.68
2022-08-09T11:58:33.057Z,44.49
2022-08-09T12:01:09.044Z,44.63
2022-08-09T12:03:57.385Z,44.59
2022-08-09T12:06:32.018Z,44.45
2022-08-09T12:09:04.388Z,44.37
2022-08-09T12:11:44.482Z,43.95
2022-08-09T12:14:36.446Z,43.87
2022-08-09T12:17:27.849Z,44.24
2022-08-09T12:19:59.489Z,44.03
2022-08-09T12:22:29.073Z,44.29
2022-08-09T12:25:36.264Z,44.40
2022-08-09T12:28:59.851Z,44.41
2022-08-09T12:31:58.292Z,44.31
2022-08-09T12:34:34.272Z,44.54
2022-08-09T12:37:21.942Z,44.46
2022-08-09T12:40:08.152Z,44.31
2022-08-09T12:42:37.517Z,44.20
2022-08-09T12:45:33.796Z,43.88
2022-08-09T12:47:58.140Z,43.64
2022-08-09T12:50:26.519Z,43.71
2022-08-09T12:53:09.572Z,43.83
2022-08-09T12:56:15.858Z,43.58
2022-08-09T12:58:33.915Z,43.36
2022-08-09T13:01:04.749Z,43.31
2022-08-09T13:03:58.337Z,42.84
2022-08-09T13:06:25.439Z,42.96
2022-08-09T13:09:07.604Z,42.73
2022-08-09T13:11:45.334Z,42.26
2022-08-09T13:14:41.301Z,41.72
2022-08-09T13:17:25.736Z,41.48
2022-08-09T13:20:16.214Z,41.65
2022-08-09T13:23:05.764Z,41.56
2022-08-09T13:25:54.743Z,41.21
2022-08-09T13:28:34.684Z,41.02
2022-08-09T13:32:17.770Z,41.06
2022-08-09T13:33:57.735Z,40.97
2022-08-09T13:36:41.364Z,40.77
2022-08-09T13:39:34.385Z,40.80
2022-08-09T13:42:14.354Z,41.23
2022-08-09T13:44:48.669Z,41.02
2022-08-09T13:47:33.879Z,40.88
2022-08-09T13:50:18.252Z,41.06
2022-08-09T13:52:58.579Z,40.94
2022-08-09T13:55:29.170Z,40.72
2022-08-09T13:57:59.523Z,40.67
2022-08-09T14:00:30.361Z,40.79
2022-08-09T14:03:04.171Z,40.66
2022-08-09T14:05:59.817Z,40.40
2022-08-09T14:08:31.514Z,40.46
2022-08-09T14:11:01.225Z,40.46
2022-08-09T14:14:23.470Z,40.61
2022-08-09T14:16:22.475Z,40.75
2022-08-09T14:18:59.428Z,41.87
2022-08-09T14:21:29.113Z,42.56
2022-08-09T14:24:01.192Z,42.98
2022-08-09T14:26:34.193Z,43.49
2022-08-09T14:29:08.319Z,43.49
2022-08-09T14:31:55.068Z,43.85
2022-08-09T14:34:27.392Z,44.73
2022-08-09T14:37:07.185Z,45.59
2022-08-09T14:39:45.165Z,46.25
2022-08-09T14:42:30.502Z,47.52
2022-08-09T14:46:39.990Z,48.63
2022-08-09T14:47:58.539Z,49.52
2022-08-09T14:50:33.069Z,49.77
2022-08-09T14:53:06.285Z,50.22
2022-08-09T14:55:42.084Z,50.70
2022-08-09T14:58:11.286Z,51.22
2022-08-09T15:00:42.295Z,51.59
2022-08-09T15:03:11.017Z,52.22
2022-08-09T15:05:40.111Z,52.41
2022-08-09T15:08:19.065Z,52.35
2022-08-09T15:11:01.805Z,52.98
2022-08-09T15:13:48.182Z,53.11
2022-08-09T15:16:23.390Z,53.52
2022-08-09T15:18:59.788Z,53.63
2022-08-09T15:22:00.827Z,53.35
2022-08-09T15:24:24.162Z,53.37
2022-08-09T15:26:55.349Z,53.36
2022-08-09T15:30:48.627Z,53.15
2022-08-09T15:32:28.644Z,53.25
2022-08-09T15:35:40.272Z,52.96
2022-08-09T15:38:10.896Z,52.79
2022-08-09T15:40:43.777Z,52.73
2022-08-09T15:43:13.602Z,52.84
2022-08-09T15:46:07.260Z,52.90
2022-08-09T15:48:32.009Z,52.61
2022-08-09T15:51:01.430Z,52.34
2022-08-09T15:54:03.416Z,52.22
2022-08-09T15:56:29.453Z,52.28
2022-08-09T15:58:59.635Z,52.56
2022-08-09T16:01:31.339Z,53.12
2022-08-09T16:04:03.742Z,53.35
2022-08-09T16:06:37.354Z,53.67
2022-08-09T16:09:06.587Z,53.52
2022-08-09T16:11:35.026Z,53.43
2022-08-09T16:14:07.949Z,53.25
2022-08-09T16:16:38.080Z,52.78
2022-08-09T16:19:10.668Z,53.00
2022-08-09T16:21:51.730Z,53.16
2022-08-09T16:24:33.797Z,53.20
2022-08-09T16:27:05.178Z,53.38
2022-08-09T16:29:36.997Z,53.36
2022-08-09T16:32:19.480Z,53.44
2022-08-09T16:34:58.105Z,53.36
2022-08-09T16:37:56.165Z,53.76
2022-08-09T16:40:29.906Z,53.80
2022-08-09T16:43:05.310Z,53.85
2022-08-09T16:45:33.712Z,53.85
2022-08-09T16:48:41.195Z,54.03
2022-08-09T16:50:59.550Z,54.19
2022-08-09T16:53:36.999Z,54.25
2022-08-09T16:56:09.914Z,55.94
2022-08-09T16:58:42.698Z,58.23
2022-08-09T17:01:23.775Z,59.75
2022-08-09T17:03:54.460Z,60.16
2022-08-09T17:06:28.916Z,60.57
2022-08-09T17:09:43.620Z,61.50
2022-08-09T17:11:52.570Z,61.98
2022-08-09T17:14:28.044Z,62.30
2022-08-09T17:17:01.087Z,62.49
2022-08-09T17:19:47.572Z,62.47
2022-08-09T17:22:25.087Z,63.05
2022-08-09T17:25:03.088Z,63.72
2022-08-09T17:27:33.976Z,63.96
2022-08-09T17:30:06.685Z,64.48
2022-08-09T17:32:45.420Z,64.23
2022-08-09T17:35:14.889Z,64.86
2022-08-09T17:38:12.864Z,65.25
2022-08-09T17:40:36.309Z,65.10
2022-08-09T17:43:32.095Z,64.81
2022-08-09T17:46:05.870Z,64.66
2022-08-09T17:48:38.439Z,64.57
2022-08-09T17:51:19.135Z,64.68
2022-08-09T17:53:52.790Z,64.80
2022-08-09T17:56:29.089Z,64.75
2022-08-09T17:59:09.057Z,64.83
2022-08-09T18:02:07.936Z,64.68
2022-08-09T18:04:29.252Z,64.63
2022-08-09T18:06:59.372Z,64.53
2022-08-09T18:09:39.987Z,64.62
2022-08-09T18:12:17.974Z,64.92
2022-08-09T18:14:54.686Z,65.30
2022-08-09T18:17:27.362Z,65.40
2022-08-09T18:21:01.871Z,65.42
2022-08-09T18:23:05.318Z,65.48
2022-08-09T18:25:51.182Z,65.38
2022-08-09T18:30:40.623Z,65.84
2022-08-09T18:31:12.505Z,66.11
2022-08-09T18:33:40.802Z,66.32
2022-08-09T18:36:14.126Z,66.79
2022-08-09T18:38:57.503Z,67.29
2022-08-09T18:41:29.362Z,67.03
2022-08-09T18:44:12.803Z,67.29
2022-08-09T18:46:47.207Z,67.56
2022-08-09T18:49:21.071Z,67.37
2022-08-09T18:51:55.086Z,67.20
2022-08-09T18:54:28.627Z,67.34
2022-08-09T18:57:06.085Z,67.35
2022-08-09T18:59:51.514Z,67.38
2022-08-09T19:02:23.918Z,67.84
2022-08-09T19:05:04.258Z,68.24
2022-08-09T19:08:03.721Z,68.55
2022-08-09T19:10:36.948Z,68.60
2022-08-09T19:13:22.831Z,68.43
2022-08-09T19:15:58.714Z,68.62
2022-08-09T19:18:33.429Z,68.56
2022-08-09T19:21:09.384Z,68.41
2022-08-09T19:24:32.753Z,68.51
2022-08-09T19:26:31.566Z,68.78
2022-08-09T19:29:03.116Z,68.61
2022-08-09T19:31:44.035Z,68.89
2022-08-09T19:34:21.621Z,69.03
2022-08-09T19:36:55.626Z,69.24
2022-08-09T19:39:42.946Z,69.37
2022-08-09T19:42:15.356Z,69.48
2022-08-09T19:44:49.347Z,69.96
2022-08-09T19:47:23.356Z,70.39
2022-08-09T19:50:05.108Z,70.48
2022-08-09T19:52:51.641Z,70.92
2022-08-09T19:55:25.772Z,71.35
2022-08-09T19:57:59.654Z,71.50
2022-08-09T20:00:27.897Z,71.51
2022-08-09T20:04:27.953Z,71.73
2022-08-09T20:05:46.549Z,71.78
2022-08-09T20:08:33.382Z,71.98
2022-08-09T20:11:04.796Z,72.16
2022-08-09T20:13:36.805Z,71.88
2022-08-09T20:16:34.845Z,71.65
2022-08-09T20:19:42.534Z,71.15
2022-08-09T20:21:57.085Z,71.37
2022-08-09T20:24:32.121Z,71.53
2022-08-09T20:27:08.560Z,71.65
2022-08-09T20:29:39.053Z,71.60
2022-08-09T20:32:30.750Z,71.51
2022-08-09T20:34:59.021Z,71.32
2022-08-09T20:37:37.962Z,71.34
2022-08-09T20:40:18.996Z,71.66
2022-08-09T20:42:59.431Z,71.79
2022-08-09T20:46:01.200Z,71.72
2022-08-09T20:48:21.398Z,72.10
2022-08-09T20:50:55.735Z,72.03
2022-08-09T20:53:36.220Z,71.97
2022-08-09T20:56:17.335Z,72.11
2022-08-09T20:58:54.552Z,72.04
2022-08-09T21:01:35.310Z,72.21
2022-08-09T21:05:53.708Z,72.20
2022-08-09T21:07:12.254Z,72.44
2022-08-09T21:09:55.295Z,72.77
2022-08-09T21:15:27.425Z,72.90
2022-08-09T21:18:23.812Z,72.42
2022-08-09T21:20:54.558Z,72.02
2022-08-09T21:23:36.068Z,71.75
2022-08-09T21:26:15.664Z,71.42
2022-08-09T21:28:51.792Z,71.40
2022-08-09T21:31:24.633Z,71.52
2022-08-09T21:34:12.755Z,71.33
2022-08-09T21:36:45.810Z,71.49
2022-08-09T21:39:28.155Z,71.46
2022-08-09T21:42:11.107Z,71.65
2022-08-09T21:44:43.595Z,71.82
2022-08-09T21:47:17.349Z,72.07
2022-08-09T21:49:48.088Z,72.34
2022-08-09T21:52:20.331Z,72.54
2022-08-09T21:55:02.852Z,72.68
2022-08-09T21:57:59.046Z,72.80
2022-08-09T22:00:32.633Z,72.78
2022-08-09T22:03:05.932Z,72.71
2022-08-09T22:05:42.169Z,72.46
2022-08-09T22:08:14.621Z,72.49
2022-08-09T22:11:49.532Z,72.49
2022-08-09T22:13:35.607Z,72.58
2022-08-09T22:16:08.835Z,72.89
2022-08-09T22:18:53.101Z,73.08
2022-08-09T22:21:27.523Z,73.39
2022-08-09T22:24:16.605Z,73.76
2022-08-09T22:26:51.333Z,73.87
2022-08-09T22:29:28.461Z,74.59
2022-08-09T22:32:00.774Z,75.07
2022-08-09T22:34:29.099Z,75.26
2022-08-09T22:36:58.407Z,75.24
2022-08-09T22:39:56.283Z,75.46
2022-08-09T22:42:22.296Z,75.82
2022-08-09T22:48:04.718Z,76.19
2022-08-09T22:48:11.234Z,76.37
2022-08-09T22:50:32.408Z,76.43
2022-08-09T22:53:03.222Z,76.57
2022-08-09T22:56:06.532Z,76.78
2022-08-09T22:58:32.262Z,77.04
2022-08-09T23:01:05.973Z,77.16
2022-08-09T23:04:03.513Z,77.21
2022-08-09T23:06:32.796Z,77.47
2022-08-09T23:09:07.378Z,77.79
2022-08-09T23:11:35.614Z,78.08
2022-08-09T23:14:10.086Z,78.37
2022-08-09T23:16:45.830Z,78.90
2022-08-09T23:19:13.883Z,79.38
2022-08-09T23:21:42.178Z,79.81
2022-08-09T23:24:10.927Z,80.14
2022-08-09T23:26:39.757Z,80.45
2022-08-09T23:29:14.123Z,80.72
2022-08-09T23:31:42.299Z,80.87
2022-08-09T23:34:10.418Z,81.01
2022-08-09T23:36:38.654Z,81.06
2022-08-09T23:39:08.136Z,81.18
2022-08-09T23:41:36.327Z,81.11
2022-08-09T23:44:04.842Z,81.00
2022-08-09T23:46:33.127Z,80.83
2022-08-09T23:49:01.613Z,80.74
2022-08-09T23:51:30.294Z,80.58
2022-08-09T23:54:02.126Z,80.49
2022-08-09T23:56:39.528Z,80.27
2022-08-09T23:59:22.165Z,80.19
